Airfield :
LOGIN :

Register | Disclaimer

   EN    FR    IT 

 










Legend :    VFR   Marginal VFR   IFR   Intensive IFR   Very Intensive IFR
Visi :
Ceiling :
>= 8 km
>= 3000ft
5 to 8 km
1000 to 3000 ft
1500m to 5 km
500 to 1000 ft
800 to 1500m
200 to 500 ft
< 800m
< 200 ft
Symbols :   Thunderstorms  Fog  Heavy snow  Heavy precipitations  Wind > 20 kt
SIGMETs :     Misc.  Thunderstorms  Icing  Turbulence  Mountain Waves  Volcanic Ashes






- Airport Elevation : 112 ft
- IATA code : KIR


EIKY - Kerry Farranfore

CURRENT METAR :
  • 231730Z 22004KT 130V250 9999 SCT016 BKN032 12/10 Q1002

EXPIRED METARs :
  • 231700Z 04003KT 340V130 9999 FEW015 SCT019 BKN036 13/11 Q1002
  • 231630Z 35003KT 270V050 9999 FEW010 SCT022 BKN032 13/12 Q1002
  • 231600Z 25010KT 9999 FEW004 SCT011 BKN021 12/11 Q1002 RESHRA
  • 231530Z 22008KT 190V250 3000 +RA BKN013 OVC029 13/12 Q1002
  • 231500Z 19012KT 9999 -RA FEW007 SCT014 BKN031 13/12 Q1002

TAF TAF EIKY
Valid from the 23 at 18:00 until the 23 at 21:00 UTC


231700Z 2318/2321 23008KT 9999 SCT012 BKN020



MET'MAP, your aeronautical weather chart ! - Copyright ORBIFLY December 2007 - Disclaimer

ORBIFLY MET'MAP TEAM :

Programming & Development : Alexandra Zaïnal
Concept & Development : Baudouin d'Aumeries
Co-Development & Prog : Marc-Olivier Méhu
Technical & hardware support : Manuel Goepfert

Contact : metmap@orbifly.com




SOURCES & CREDITS :

   NOAA